Grand Forks Air Force Base
KRDR : now visible

Airfield :











YOU CAN JOIN US ON...

 
LOGIN :

Register | Disclaimer

   EN    FR    IT 

 









Legend :    VFR   Marginal VFR   IFR   Intensive IFR   Very Intensive IFR
Visi :
Ceiling :
>= 8 km
>= 3000ft
5 to 8 km
1000 to 3000 ft
1500m to 5 km
500 to 1000 ft
800 to 1500m
200 to 500 ft
< 800m
< 200 ft
Symbols :   Thunderstorms  Fog  Heavy snow  Heavy precipitations  Wind > 20 kt






- Airport Elevation : 913 ft


KRDR - Grand Forks Air Force Base

CURRENT METAR :
  • 251556Z 27007KT 10SM CLR M03/M06 A3014 RMK AO2A SLP228 T10261057 $

EXPIRED METARs :
  • 251456Z 27009KT 10SM CLR M05/M07 A3015 RMK AO2A SLP231 T10491070 53000 $
  • 251356Z 27010KT 10SM SCT090 M07/M08 A3014 RMK AO2A SLP227 T10731081 $

TAF AMD TAF KRDR
Valid from the 25 at 13:00 until the 26 at 16:00 UTC


251300Z 2513/2616 26012G18KT 9999 SCT030 QNH3018INS
BECMG 2518/2519 19012G18KT 9999 SKC QNH3010INS
BECMG 2604/2605 19014KT 9999 FEW190 QNH2970INS
BECMG 2614/2615 21010KT 9999 BKN140 QNH2950INS TX00/2520Z TNM08/2513Z
KZMP FIR / North America



MET'MAP, your aeronautical weather chart ! - Copyright ORBIFLY December 2007 - Disclaimer

ORBIFLY MET'MAP TEAM :

Programming & Development : Alexandra Zaïnal
Concept & original design : Baudouin d'Aumeries
Assistance for programming : Marc-Olivier Méhu
Technical & hardware support : Manuel Goepfert

Contact : metmap@orbifly.com




SOURCES & CREDITS :

   NOAA       Earth
Advisory